sensor_id;sensor_type;location;lat;lon;timestamp;pressure;altitude;pressure_sealevel;temperature;humidity
49645;BME280;36494;50.730;-1.932;2022-10-31T00:01:09;101092.24;;;14.37;100.00
49645;BME280;36494;50.730;-1.932;2022-10-31T00:03:28;101090.26;;;14.35;100.00
49645;BME280;36494;50.730;-1.932;2022-10-31T00:05:54;101088.08;;;14.33;100.00
49645;BME280;36494;50.730;-1.932;2022-10-31T00:08:19;101088.88;;;14.28;100.00
49645;BME280;36494;50.730;-1.932;2022-10-31T00:10:45;101088.77;;;14.33;100.00
49645;BME280;36494;50.730;-1.932;2022-10-31T00:13:12;101090.79;;;14.29;100.00
49645;BME280;36494;50.730;-1.932;2022-10-31T00:15:37;101086.76;;;14.31;100.00
49645;BME280;36494;50.730;-1.932;2022-10-31T00:18:02;101083.73;;;14.26;100.00
49645;BME280;36494;50.730;-1.932;2022-10-31T00:20:27;101078.15;;;14.28;100.00
49645;BME280;36494;50.730;-1.932;2022-10-31T00:22:52;101080.95;;;14.28;100.00
49645;BME280;36494;50.730;-1.932;2022-10-31T00:25:18;101079.91;;;14.24;100.00
49645;BME280;36494;50.730;-1.932;2022-10-31T00:27:43;101073.22;;;14.29;100.00
49645;BME280;36494;50.730;-1.932;2022-10-31T00:30:09;101070.12;;;14.27;100.00
49645;BME280;36494;50.730;-1.932;2022-10-31T00:32:34;101071.08;;;14.37;100.00
49645;BME280;36494;50.730;-1.932;2022-10-31T00:35:00;101071.89;;;14.28;100.00
49645;BME280;36494;50.730;-1.932;2022-10-31T00:37:26;101072.09;;;14.28;100.00
49645;BME280;36494;50.730;-1.932;2022-10-31T00:39:51;101078.69;;;14.20;100.00
49645;BME280;36494;50.730;-1.932;2022-10-31T00:42:16;101074.50;;;14.26;100.00
49645;BME280;36494;50.730;-1.932;2022-10-31T00:44:41;101072.38;;;14.29;100.00
49645;BME280;36494;50.730;-1.932;2022-10-31T00:47:07;101073.16;;;14.34;100.00
49645;BME280;36494;50.730;-1.932;2022-10-31T00:49:32;101076.73;;;14.34;100.00
49645;BME280;36494;50.730;-1.932;2022-10-31T00:51:58;101074.26;;;14.31;100.00
49645;BME280;36494;50.730;-1.932;2022-10-31T00:54:23;101075.96;;;14.24;100.00
49645;BME280;36494;50.730;-1.932;2022-10-31T00:56:49;101071.40;;;14.29;100.00
49645;BME280;36494;50.730;-1.932;2022-10-31T00:59:14;101069.87;;;14.28;100.00
49645;BME280;36494;50.730;-1.932;2022-10-31T01:01:39;101066.77;;;14.28;100.00
49645;BME280;36494;50.730;-1.932;2022-10-31T01:04:05;101065.16;;;14.24;100.00
49645;BME280;36494;50.730;-1.932;2022-10-31T01:06:30;101059.88;;;14.25;100.00
49645;BME280;36494;50.730;-1.932;2022-10-31T01:08:55;101063.97;;;14.27;100.00
49645;BME280;36494;50.730;-1.932;2022-10-31T01:11:22;101064.17;;;14.32;100.00
49645;BME280;36494;50.730;-1.932;2022-10-31T01:13:49;101067.65;;;14.28;100.00
49645;BME280;36494;50.730;-1.932;2022-10-31T01:16:14;101064.62;;;14.23;100.00
49645;BME280;36494;50.730;-1.932;2022-10-31T01:18:38;101062.23;;;14.18;100.00
49645;BME280;36494;50.730;-1.932;2022-10-31T01:21:05;101064.10;;;14.18;100.00
49645;BME280;36494;50.730;-1.932;2022-10-31T01:23:29;101065.16;;;14.17;100.00
49645;BME280;36494;50.730;-1.932;2022-10-31T01:26:03;101061.42;;;14.19;100.00
49645;BME280;36494;50.730;-1.932;2022-10-31T01:28:20;101059.64;;;14.20;100.00
49645;BME280;36494;50.730;-1.932;2022-10-31T01:30:45;101059.23;;;14.18;100.00
49645;BME280;36494;50.730;-1.932;2022-10-31T01:33:11;101058.34;;;14.23;100.00
49645;BME280;36494;50.730;-1.932;2022-10-31T01:35:36;101061.57;;;14.18;100.00
49645;BME280;36494;50.730;-1.932;2022-10-31T01:38:01;101062.64;;;14.13;100.00
49645;BME280;36494;50.730;-1.932;2022-10-31T01:40:29;101061.20;;;14.14;100.00
49645;BME280;36494;50.730;-1.932;2022-10-31T01:42:52;101063.51;;;14.18;100.00
49645;BME280;36494;50.730;-1.932;2022-10-31T01:45:18;101063.94;;;14.10;100.00
49645;BME280;36494;50.730;-1.932;2022-10-31T01:47:46;101070.27;;;14.16;100.00
49645;BME280;36494;50.730;-1.932;2022-10-31T01:50:24;101070.67;;;14.14;100.00
49645;BME280;36494;50.730;-1.932;2022-10-31T01:52:39;101068.39;;;14.21;100.00
49645;BME280;36494;50.730;-1.932;2022-10-31T01:55:02;101064.67;;;14.15;100.00
49645;BME280;36494;50.730;-1.932;2022-10-31T01:57:25;101066.21;;;14.18;100.00
49645;BME280;36494;50.730;-1.932;2022-10-31T01:59:53;101068.67;;;14.16;100.00
49645;BME280;36494;50.730;-1.932;2022-10-31T02:02:17;101066.26;;;14.24;100.00
49645;BME280;36494;50.730;-1.932;2022-10-31T02:04:41;101068.72;;;14.14;100.00
49645;BME280;36494;50.730;-1.932;2022-10-31T02:07:09;101067.63;;;14.19;100.00
49645;BME280;36494;50.730;-1.932;2022-10-31T02:09:31;101066.99;;;14.16;100.00
49645;BME280;36494;50.730;-1.932;2022-10-31T02:11:58;101065.28;;;14.20;100.00
49645;BME280;36494;50.730;-1.932;2022-10-31T02:14:24;101071.36;;;14.23;100.00
49645;BME280;36494;50.730;-1.932;2022-10-31T02:16:48;101073.75;;;14.20;100.00
49645;BME280;36494;50.730;-1.932;2022-10-31T02:19:16;101071.72;;;14.23;100.00
49645;BME280;36494;50.730;-1.932;2022-10-31T02:21:44;101072.35;;;14.18;100.00
49645;BME280;36494;50.730;-1.932;2022-10-31T02:24:28;101072.01;;;14.21;100.00
49645;BME280;36494;50.730;-1.932;2022-10-31T02:26:43;101072.85;;;14.22;100.00
49645;BME280;36494;50.730;-1.932;2022-10-31T02:29:14;101072.86;;;14.15;100.00
49645;BME280;36494;50.730;-1.932;2022-10-31T02:31:28;101071.44;;;14.22;100.00
49645;BME280;36494;50.730;-1.932;2022-10-31T02:33:51;101069.74;;;14.19;100.00
49645;BME280;36494;50.730;-1.932;2022-10-31T02:36:18;101066.44;;;14.22;100.00
49645;BME280;36494;50.730;-1.932;2022-10-31T02:38:46;101062.37;;;14.16;100.00
49645;BME280;36494;50.730;-1.932;2022-10-31T02:41:09;101057.45;;;14.16;100.00
49645;BME280;36494;50.730;-1.932;2022-10-31T02:43:35;101055.90;;;14.13;100.00
49645;BME280;36494;50.730;-1.932;2022-10-31T02:45:58;101052.07;;;14.11;100.00
49645;BME280;36494;50.730;-1.932;2022-10-31T02:48:22;101046.34;;;14.14;100.00
49645;BME280;36494;50.730;-1.932;2022-10-31T02:50:48;101043.06;;;14.08;100.00
49645;BME280;36494;50.730;-1.932;2022-10-31T02:53:09;101037.59;;;14.09;100.00
49645;BME280;36494;50.730;-1.932;2022-10-31T02:55:47;101035.86;;;14.08;100.00
49645;BME280;36494;50.730;-1.932;2022-10-31T02:58:02;101029.32;;;14.14;100.00
49645;BME280;36494;50.730;-1.932;2022-10-31T03:00:25;101029.43;;;14.16;100.00
49645;BME280;36494;50.730;-1.932;2022-10-31T03:02:58;101025.00;;;14.00;100.00
49645;BME280;36494;50.730;-1.932;2022-10-31T03:05:24;101024.09;;;14.08;100.00
49645;BME280;36494;50.730;-1.932;2022-10-31T03:07:49;101022.94;;;14.13;100.00
49645;BME280;36494;50.730;-1.932;2022-10-31T03:10:14;101019.12;;;14.17;100.00
49645;BME280;36494;50.730;-1.932;2022-10-31T03:15:04;101018.45;;;14.13;100.00
49645;BME280;36494;50.730;-1.932;2022-10-31T03:17:27;101018.07;;;14.03;100.00
49645;BME280;36494;50.730;-1.932;2022-10-31T03:19:53;101017.80;;;14.02;100.00
49645;BME280;36494;50.730;-1.932;2022-10-31T03:22:17;101015.54;;;13.95;100.00
49645;BME280;36494;50.730;-1.932;2022-10-31T03:24:41;101009.21;;;13.97;100.00
49645;BME280;36494;50.730;-1.932;2022-10-31T03:27:08;101005.64;;;13.92;100.00
49645;BME280;36494;50.730;-1.932;2022-10-31T03:29:34;101004.77;;;14.02;100.00
49645;BME280;36494;50.730;-1.932;2022-10-31T03:31:59;101002.94;;;13.97;100.00
49645;BME280;36494;50.730;-1.932;2022-10-31T03:34:21;101001.06;;;13.98;100.00
49645;BME280;36494;50.730;-1.932;2022-10-31T03:36:49;100992.83;;;13.97;100.00
49645;BME280;36494;50.730;-1.932;2022-10-31T03:39:14;100991.98;;;13.96;100.00
49645;BME280;36494;50.730;-1.932;2022-10-31T03:41:42;100987.47;;;14.00;100.00
49645;BME280;36494;50.730;-1.932;2022-10-31T03:44:06;100984.50;;;14.02;100.00
49645;BME280;36494;50.730;-1.932;2022-10-31T03:46:29;100985.79;;;13.94;100.00
49645;BME280;36494;50.730;-1.932;2022-10-31T03:48:54;100982.55;;;13.99;100.00
49645;BME280;36494;50.730;-1.932;2022-10-31T03:51:23;100979.37;;;13.98;100.00
49645;BME280;36494;50.730;-1.932;2022-10-31T03:53:47;100969.56;;;14.04;100.00
49645;BME280;36494;50.730;-1.932;2022-10-31T03:56:14;100972.88;;;13.97;100.00
49645;BME280;36494;50.730;-1.932;2022-10-31T03:58:39;100974.85;;;13.95;100.00
49645;BME280;36494;50.730;-1.932;2022-10-31T04:01:02;100977.90;;;13.97;100.00
49645;BME280;36494;50.730;-1.932;2022-10-31T04:03:31;100974.83;;;13.92;100.00
49645;BME280;36494;50.730;-1.932;2022-10-31T04:05:56;100970.95;;;13.97;100.00
49645;BME280;36494;50.730;-1.932;2022-10-31T04:08:23;100973.65;;;13.98;100.00
49645;BME280;36494;50.730;-1.932;2022-10-31T04:10:47;100968.88;;;13.93;100.00
49645;BME280;36494;50.730;-1.932;2022-10-31T04:13:13;100970.32;;;13.89;100.00
49645;BME280;36494;50.730;-1.932;2022-10-31T04:15:35;100969.34;;;13.89;100.00
49645;BME280;36494;50.730;-1.932;2022-10-31T04:18:01;100969.83;;;13.87;100.00
49645;BME280;36494;50.730;-1.932;2022-10-31T04:20:32;100966.62;;;13.87;100.00
49645;BME280;36494;50.730;-1.932;2022-10-31T04:22:50;100966.06;;;13.95;100.00
49645;BME280;36494;50.730;-1.932;2022-10-31T04:25:15;100962.92;;;13.95;100.00
49645;BME280;36494;50.730;-1.932;2022-10-31T04:27:41;100958.24;;;13.92;100.00
49645;BME280;36494;50.730;-1.932;2022-10-31T04:30:07;100961.56;;;13.89;100.00
49645;BME280;36494;50.730;-1.932;2022-10-31T04:32:32;100956.17;;;13.92;100.00
49645;BME280;36494;50.730;-1.932;2022-10-31T04:34:58;100954.35;;;13.88;100.00
49645;BME280;36494;50.730;-1.932;2022-10-31T04:37:23;100956.92;;;13.87;100.00
49645;BME280;36494;50.730;-1.932;2022-10-31T04:39:48;100953.23;;;13.91;100.00
49645;BME280;36494;50.730;-1.932;2022-10-31T04:42:13;100956.34;;;13.94;100.00
49645;BME280;36494;50.730;-1.932;2022-10-31T04:44:38;100954.52;;;13.97;100.00
49645;BME280;36494;50.730;-1.932;2022-10-31T04:47:04;100954.86;;;13.96;100.00
49645;BME280;36494;50.730;-1.932;2022-10-31T04:49:29;100956.75;;;13.92;100.00
49645;BME280;36494;50.730;-1.932;2022-10-31T04:51:54;100952.25;;;13.94;100.00
49645;BME280;36494;50.730;-1.932;2022-10-31T04:54:20;100947.65;;;13.97;100.00
49645;BME280;36494;50.730;-1.932;2022-10-31T04:56:45;100946.24;;;13.97;100.00
49645;BME280;36494;50.730;-1.932;2022-10-31T04:59:10;100944.70;;;13.89;100.00
49645;BME280;36494;50.730;-1.932;2022-10-31T05:01:36;100944.77;;;13.83;100.00
49645;BME280;36494;50.730;-1.932;2022-10-31T05:04:01;100944.61;;;13.81;100.00
49645;BME280;36494;50.730;-1.932;2022-10-31T05:06:26;100941.54;;;13.86;100.00
49645;BME280;36494;50.730;-1.932;2022-10-31T05:08:52;100941.62;;;13.73;100.00
49645;BME280;36494;50.730;-1.932;2022-10-31T05:11:17;100942.31;;;13.74;100.00
49645;BME280;36494;50.730;-1.932;2022-10-31T05:13:42;100936.90;;;13.69;100.00
49645;BME280;36494;50.730;-1.932;2022-10-31T05:16:08;100936.24;;;13.74;100.00
49645;BME280;36494;50.730;-1.932;2022-10-31T05:18:34;100942.20;;;13.74;100.00
49645;BME280;36494;50.730;-1.932;2022-10-31T05:20:59;100940.97;;;13.66;100.00
49645;BME280;36494;50.730;-1.932;2022-10-31T05:23:25;100938.74;;;13.64;100.00
49645;BME280;36494;50.730;-1.932;2022-10-31T05:25:51;100936.49;;;13.62;100.00
49645;BME280;36494;50.730;-1.932;2022-10-31T05:28:16;100935.72;;;13.64;100.00
49645;BME280;36494;50.730;-1.932;2022-10-31T05:30:42;100932.15;;;13.54;100.00
49645;BME280;36494;50.730;-1.932;2022-10-31T05:33:07;100929.43;;;13.57;100.00
49645;BME280;36494;50.730;-1.932;2022-10-31T05:35:33;100927.02;;;13.54;100.00
49645;BME280;36494;50.730;-1.932;2022-10-31T05:37:58;100923.35;;;13.57;100.00
49645;BME280;36494;50.730;-1.932;2022-10-31T05:40:23;100918.28;;;13.52;100.00
49645;BME280;36494;50.730;-1.932;2022-10-31T05:42:51;100911.73;;;13.56;100.00
49645;BME280;36494;50.730;-1.932;2022-10-31T05:45:16;100910.10;;;13.57;100.00
49645;BME280;36494;50.730;-1.932;2022-10-31T05:47:40;100903.65;;;13.59;100.00
49645;BME280;36494;50.730;-1.932;2022-10-31T05:50:06;100903.46;;;13.47;100.00
49645;BME280;36494;50.730;-1.932;2022-10-31T05:52:31;100901.94;;;13.51;100.00
49645;BME280;36494;50.730;-1.932;2022-10-31T05:54:57;100899.59;;;13.50;100.00
49645;BME280;36494;50.730;-1.932;2022-10-31T05:57:22;100898.73;;;13.48;100.00
49645;BME280;36494;50.730;-1.932;2022-10-31T05:59:47;100898.37;;;13.49;100.00
49645;BME280;36494;50.730;-1.932;2022-10-31T06:02:13;100897.75;;;13.55;100.00
49645;BME280;36494;50.730;-1.932;2022-10-31T06:04:38;100891.67;;;13.54;100.00
49645;BME280;36494;50.730;-1.932;2022-10-31T06:07:04;100886.48;;;13.48;100.00
49645;BME280;36494;50.730;-1.932;2022-10-31T06:09:29;100883.09;;;13.52;100.00
49645;BME280;36494;50.730;-1.932;2022-10-31T06:11:54;100885.68;;;13.49;100.00
49645;BME280;36494;50.730;-1.932;2022-10-31T06:14:20;100885.68;;;13.60;100.00
49645;BME280;36494;50.730;-1.932;2022-10-31T06:16:45;100882.82;;;13.56;100.00
49645;BME280;36494;50.730;-1.932;2022-10-31T06:19:10;100885.29;;;13.54;100.00
49645;BME280;36494;50.730;-1.932;2022-10-31T06:21:36;100878.73;;;13.53;100.00
49645;BME280;36494;50.730;-1.932;2022-10-31T06:24:01;100872.93;;;13.53;100.00
49645;BME280;36494;50.730;-1.932;2022-10-31T06:26:26;100871.24;;;13.64;100.00
49645;BME280;36494;50.730;-1.932;2022-10-31T06:28:51;100869.17;;;13.67;100.00
49645;BME280;36494;50.730;-1.932;2022-10-31T06:31:16;100868.76;;;13.71;100.00
49645;BME280;36494;50.730;-1.932;2022-10-31T06:33:42;100870.97;;;13.77;100.00
49645;BME280;36494;50.730;-1.932;2022-10-31T06:36:08;100864.70;;;13.72;100.00
49645;BME280;36494;50.730;-1.932;2022-10-31T06:38:32;100864.42;;;13.76;100.00
49645;BME280;36494;50.730;-1.932;2022-10-31T06:41:00;100859.03;;;13.76;100.00
49645;BME280;36494;50.730;-1.932;2022-10-31T06:43:23;100859.39;;;13.82;100.00
49645;BME280;36494;50.730;-1.932;2022-10-31T06:45:48;100859.62;;;13.84;100.00
49645;BME280;36494;50.730;-1.932;2022-10-31T06:48:14;100860.61;;;13.81;100.00
49645;BME280;36494;50.730;-1.932;2022-10-31T06:50:39;100858.45;;;13.86;100.00
49645;BME280;36494;50.730;-1.932;2022-10-31T06:53:04;100863.51;;;13.85;100.00
49645;BME280;36494;50.730;-1.932;2022-10-31T06:55:29;100864.07;;;13.83;100.00
49645;BME280;36494;50.730;-1.932;2022-10-31T06:57:57;100866.49;;;13.81;100.00
49645;BME280;36494;50.730;-1.932;2022-10-31T07:00:20;100866.33;;;13.80;100.00
49645;BME280;36494;50.730;-1.932;2022-10-31T07:02:54;100874.39;;;13.76;100.00
49645;BME280;36494;50.730;-1.932;2022-10-31T07:05:11;100877.15;;;13.82;100.00
49645;BME280;36494;50.730;-1.932;2022-10-31T07:07:36;100874.90;;;13.85;100.00
49645;BME280;36494;50.730;-1.932;2022-10-31T07:10:01;100873.76;;;13.86;100.00
49645;BME280;36494;50.730;-1.932;2022-10-31T07:12:26;100874.32;;;13.82;100.00
49645;BME280;36494;50.730;-1.932;2022-10-31T07:14:52;100874.39;;;13.80;100.00
49645;BME280;36494;50.730;-1.932;2022-10-31T07:17:18;100875.71;;;13.84;100.00
49645;BME280;36494;50.730;-1.932;2022-10-31T07:19:44;100875.90;;;13.83;100.00
49645;BME280;36494;50.730;-1.932;2022-10-31T07:22:09;100876.81;;;13.89;100.00
49645;BME280;36494;50.730;-1.932;2022-10-31T07:24:34;100874.80;;;13.89;100.00
49645;BME280;36494;50.730;-1.932;2022-10-31T07:27:00;100877.11;;;13.85;100.00
49645;BME280;36494;50.730;-1.932;2022-10-31T07:29:25;100876.04;;;13.91;100.00
49645;BME280;36494;50.730;-1.932;2022-10-31T07:31:51;100875.75;;;13.97;100.00
49645;BME280;36494;50.730;-1.932;2022-10-31T07:34:16;100877.84;;;13.85;100.00
49645;BME280;36494;50.730;-1.932;2022-10-31T07:36:41;100876.50;;;13.87;100.00
49645;BME280;36494;50.730;-1.932;2022-10-31T07:39:06;100870.23;;;13.84;100.00
49645;BME280;36494;50.730;-1.932;2022-10-31T07:41:32;100868.38;;;13.86;100.00
49645;BME280;36494;50.730;-1.932;2022-10-31T07:43:58;100867.92;;;13.85;100.00
49645;BME280;36494;50.730;-1.932;2022-10-31T07:46:23;100867.38;;;13.81;100.00
49645;BME280;36494;50.730;-1.932;2022-10-31T07:48:49;100862.26;;;13.79;100.00
49645;BME280;36494;50.730;-1.932;2022-10-31T07:51:14;100860.71;;;13.82;100.00
49645;BME280;36494;50.730;-1.932;2022-10-31T07:53:39;100856.68;;;13.87;100.00
49645;BME280;36494;50.730;-1.932;2022-10-31T07:56:05;100860.07;;;13.86;100.00
49645;BME280;36494;50.730;-1.932;2022-10-31T07:58:30;100860.41;;;13.92;100.00
49645;BME280;36494;50.730;-1.932;2022-10-31T08:00:57;100862.81;;;13.95;100.00
49645;BME280;36494;50.730;-1.932;2022-10-31T08:03:22;100858.64;;;14.00;100.00
49645;BME280;36494;50.730;-1.932;2022-10-31T08:05:47;100853.17;;;14.08;100.00
49645;BME280;36494;50.730;-1.932;2022-10-31T08:08:13;100853.88;;;14.06;100.00
49645;BME280;36494;50.730;-1.932;2022-10-31T08:10:38;100850.47;;;13.99;100.00
49645;BME280;36494;50.730;-1.932;2022-10-31T08:13:05;100850.67;;;14.05;100.00
49645;BME280;36494;50.730;-1.932;2022-10-31T08:15:29;100849.09;;;14.02;100.00
49645;BME280;36494;50.730;-1.932;2022-10-31T08:17:54;100851.21;;;14.06;100.00
49645;BME280;36494;50.730;-1.932;2022-10-31T08:20:20;100851.20;;;14.09;100.00
49645;BME280;36494;50.730;-1.932;2022-10-31T08:22:53;100846.86;;;14.10;100.00
49645;BME280;36494;50.730;-1.932;2022-10-31T08:25:10;100844.45;;;13.96;100.00
49645;BME280;36494;50.730;-1.932;2022-10-31T08:27:35;100842.14;;;13.97;100.00
49645;BME280;36494;50.730;-1.932;2022-10-31T08:30:00;100840.48;;;13.93;100.00
49645;BME280;36494;50.730;-1.932;2022-10-31T08:32:26;100838.75;;;14.06;100.00
49645;BME280;36494;50.730;-1.932;2022-10-31T08:34:52;100834.85;;;14.01;100.00
49645;BME280;36494;50.730;-1.932;2022-10-31T08:37:17;100839.76;;;14.02;100.00
49645;BME280;36494;50.730;-1.932;2022-10-31T08:39:42;100841.85;;;14.03;100.00
49645;BME280;36494;50.730;-1.932;2022-10-31T08:42:07;100841.93;;;14.02;100.00
49645;BME280;36494;50.730;-1.932;2022-10-31T08:44:33;100848.66;;;14.08;100.00
49645;BME280;36494;50.730;-1.932;2022-10-31T08:46:58;100845.95;;;14.11;100.00
49645;BME280;36494;50.730;-1.932;2022-10-31T08:49:24;100842.07;;;14.11;100.00
49645;BME280;36494;50.730;-1.932;2022-10-31T08:51:50;100834.46;;;14.11;100.00
49645;BME280;36494;50.730;-1.932;2022-10-31T08:54:15;100828.42;;;14.19;100.00
49645;BME280;36494;50.730;-1.932;2022-10-31T08:56:40;100830.94;;;14.28;100.00
49645;BME280;36494;50.730;-1.932;2022-10-31T08:59:06;100825.18;;;14.31;100.00
49645;BME280;36494;50.730;-1.932;2022-10-31T09:01:31;100817.10;;;14.30;100.00
49645;BME280;36494;50.730;-1.932;2022-10-31T09:03:56;100813.04;;;14.33;100.00
49645;BME280;36494;50.730;-1.932;2022-10-31T09:06:22;100809.75;;;14.30;100.00
49645;BME280;36494;50.730;-1.932;2022-10-31T09:08:46;100804.85;;;14.47;100.00
49645;BME280;36494;50.730;-1.932;2022-10-31T09:11:12;100801.17;;;14.47;100.00
49645;BME280;36494;50.730;-1.932;2022-10-31T09:13:38;100794.69;;;14.52;100.00
49645;BME280;36494;50.730;-1.932;2022-10-31T09:16:03;100795.51;;;14.45;100.00
49645;BME280;36494;50.730;-1.932;2022-10-31T09:18:28;100787.51;;;14.40;100.00
49645;BME280;36494;50.730;-1.932;2022-10-31T09:20:53;100781.15;;;14.42;100.00
49645;BME280;36494;50.730;-1.932;2022-10-31T09:23:20;100777.78;;;14.30;100.00
49645;BME280;36494;50.730;-1.932;2022-10-31T09:25:45;100775.10;;;14.40;100.00
49645;BME280;36494;50.730;-1.932;2022-10-31T09:28:11;100776.72;;;14.42;100.00
49645;BME280;36494;50.730;-1.932;2022-10-31T09:30:35;100772.09;;;14.51;100.00
49645;BME280;36494;50.730;-1.932;2022-10-31T09:33:02;100769.99;;;14.49;100.00
49645;BME280;36494;50.730;-1.932;2022-10-31T09:35:27;100763.27;;;14.61;100.00
49645;BME280;36494;50.730;-1.932;2022-10-31T09:37:55;100757.79;;;14.61;100.00
49645;BME280;36494;50.730;-1.932;2022-10-31T09:40:17;100756.33;;;14.58;100.00
49645;BME280;36494;50.730;-1.932;2022-10-31T09:42:52;100749.94;;;14.59;100.00
49645;BME280;36494;50.730;-1.932;2022-10-31T09:45:13;100743.87;;;14.69;100.00
49645;BME280;36494;50.730;-1.932;2022-10-31T09:47:43;100741.17;;;14.71;100.00
49645;BME280;36494;50.730;-1.932;2022-10-31T09:50:09;100735.56;;;14.69;100.00
49645;BME280;36494;50.730;-1.932;2022-10-31T09:52:27;100734.99;;;14.74;100.00
49645;BME280;36494;50.730;-1.932;2022-10-31T09:54:53;100735.37;;;14.77;100.00
49645;BME280;36494;50.730;-1.932;2022-10-31T09:57:17;100730.21;;;14.72;100.00
49645;BME280;36494;50.730;-1.932;2022-10-31T09:59:43;100723.09;;;14.74;100.00
49645;BME280;36494;50.730;-1.932;2022-10-31T10:02:13;100718.66;;;14.83;100.00
49645;BME280;36494;50.730;-1.932;2022-10-31T10:04:38;100718.90;;;14.83;100.00
49645;BME280;36494;50.730;-1.932;2022-10-31T10:06:58;100719.01;;;14.74;100.00
49645;BME280;36494;50.730;-1.932;2022-10-31T10:09:25;100719.10;;;14.76;100.00
49645;BME280;36494;50.730;-1.932;2022-10-31T10:11:54;100719.57;;;14.70;100.00
49645;BME280;36494;50.730;-1.932;2022-10-31T10:14:23;100716.95;;;14.71;100.00
49645;BME280;36494;50.730;-1.932;2022-10-31T10:16:47;100719.24;;;14.87;100.00
49645;BME280;36494;50.730;-1.932;2022-10-31T10:19:14;100717.79;;;14.89;100.00
49645;BME280;36494;50.730;-1.932;2022-10-31T10:21:37;100720.24;;;14.89;100.00
49645;BME280;36494;50.730;-1.932;2022-10-31T10:24:03;100715.24;;;14.94;100.00
49645;BME280;36494;50.730;-1.932;2022-10-31T10:26:22;100707.31;;;14.78;100.00
49645;BME280;36494;50.730;-1.932;2022-10-31T10:28:48;100707.00;;;14.86;100.00
49645;BME280;36494;50.730;-1.932;2022-10-31T10:31:14;100709.78;;;14.94;100.00
49645;BME280;36494;50.730;-1.932;2022-10-31T10:33:40;100707.22;;;14.89;100.00
49645;BME280;36494;50.730;-1.932;2022-10-31T10:36:05;100702.07;;;14.88;100.00
49645;BME280;36494;50.730;-1.932;2022-10-31T10:38:32;100704.08;;;15.01;100.00
49645;BME280;36494;50.730;-1.932;2022-10-31T10:40:53;100707.47;;;14.91;100.00
49645;BME280;36494;50.730;-1.932;2022-10-31T10:43:21;100702.52;;;14.98;100.00
49645;BME280;36494;50.730;-1.932;2022-10-31T10:45:44;100699.42;;;14.98;100.00
49645;BME280;36494;50.730;-1.932;2022-10-31T10:48:15;100692.90;;;14.95;100.00
49645;BME280;36494;50.730;-1.932;2022-10-31T10:50:36;100686.29;;;15.11;100.00
49645;BME280;36494;50.730;-1.932;2022-10-31T10:53:03;100683.49;;;15.30;100.00
49645;BME280;36494;50.730;-1.932;2022-10-31T10:55:32;100677.67;;;15.37;100.00
49645;BME280;36494;50.730;-1.932;2022-10-31T10:57:55;100668.06;;;15.56;100.00
49645;BME280;36494;50.730;-1.932;2022-10-31T11:00:19;100664.22;;;15.42;100.00
49645;BME280;36494;50.730;-1.932;2022-10-31T11:02:42;100658.00;;;15.55;100.00
49645;BME280;36494;50.730;-1.932;2022-10-31T11:05:15;100649.49;;;15.46;100.00
49645;BME280;36494;50.730;-1.932;2022-10-31T11:07:38;100643.92;;;15.59;100.00
49645;BME280;36494;50.730;-1.932;2022-10-31T11:10:03;100634.99;;;15.67;100.00
49645;BME280;36494;50.730;-1.932;2022-10-31T11:12:30;100638.76;;;15.74;100.00
49645;BME280;36494;50.730;-1.932;2022-10-31T11:14:53;100633.59;;;15.72;100.00
49645;BME280;36494;50.730;-1.932;2022-10-31T11:17:22;100630.53;;;15.74;100.00
49645;BME280;36494;50.730;-1.932;2022-10-31T11:19:41;100619.50;;;15.86;100.00
49645;BME280;36494;50.730;-1.932;2022-10-31T11:22:08;100618.17;;;16.00;100.00
49645;BME280;36494;50.730;-1.932;2022-10-31T11:24:37;100613.39;;;15.83;100.00
49645;BME280;36494;50.730;-1.932;2022-10-31T11:27:05;100609.60;;;15.94;100.00
49645;BME280;36494;50.730;-1.932;2022-10-31T11:29:24;100619.06;;;15.78;100.00
49645;BME280;36494;50.730;-1.932;2022-10-31T11:31:51;100611.34;;;15.87;100.00
49645;BME280;36494;50.730;-1.932;2022-10-31T11:34:20;100610.35;;;15.88;100.00
49645;BME280;36494;50.730;-1.932;2022-10-31T11:36:42;100609.36;;;15.78;100.00
49645;BME280;36494;50.730;-1.932;2022-10-31T11:39:05;100599.02;;;15.73;100.00
49645;BME280;36494;50.730;-1.932;2022-10-31T11:41:31;100594.65;;;15.90;100.00
49645;BME280;36494;50.730;-1.932;2022-10-31T11:43:57;100591.26;;;16.02;100.00
49645;BME280;36494;50.730;-1.932;2022-10-31T11:46:22;100587.95;;;15.97;100.00
49645;BME280;36494;50.730;-1.932;2022-10-31T11:48:47;100577.58;;;15.92;100.00
49645;BME280;36494;50.730;-1.932;2022-10-31T11:51:10;100570.62;;;15.94;100.00
49645;BME280;36494;50.730;-1.932;2022-10-31T11:53:35;100564.41;;;15.96;100.00
49645;BME280;36494;50.730;-1.932;2022-10-31T11:56:04;100558.88;;;16.10;100.00
49645;BME280;36494;50.730;-1.932;2022-10-31T11:58:26;100549.69;;;16.05;100.00
49645;BME280;36494;50.730;-1.932;2022-10-31T12:00:53;100540.57;;;16.21;100.00
49645;BME280;36494;50.730;-1.932;2022-10-31T12:03:32;100530.51;;;16.41;100.00
49645;BME280;36494;50.730;-1.932;2022-10-31T12:05:44;100525.80;;;16.06;100.00
49645;BME280;36494;50.730;-1.932;2022-10-31T12:08:09;100521.14;;;16.03;100.00
49645;BME280;36494;50.730;-1.932;2022-10-31T12:10:37;100510.44;;;15.85;100.00
49645;BME280;36494;50.730;-1.932;2022-10-31T12:13:05;100506.51;;;15.97;100.00
49645;BME280;36494;50.730;-1.932;2022-10-31T12:15:30;100495.85;;;16.12;100.00
49645;BME280;36494;50.730;-1.932;2022-10-31T12:17:53;100485.57;;;16.16;100.00
49645;BME280;36494;50.730;-1.932;2022-10-31T12:20:23;100475.29;;;16.02;100.00
49645;BME280;36494;50.730;-1.932;2022-10-31T12:22:43;100466.67;;;15.92;100.00